Wilma — V2AB2 — position and weather

sailwx.info

Track history (hours):
 
Tides and Currents Weather Stations Pressure Air Temp Water Temp Dewpoint Dewpoint Depression Visibility Wind Speed Wind Dir Waves Ship Positions

Wilma

Last reported at 2014-Sep-15 02:32 UTC. Time now 2014-Sep-19 13:48 UTC.
Position N 01°12' E 103°36'.

Length 152 m; draft 7.5 m.

Type: Cargo ship. MMSI: 304080754.

Date/timePositionNaut miles runAvg speedWind from/ knotsBaromVisibWave heightAir tempDewpointWater temp
2014-Sep-15 02:32N 01°12' E 103°36'1010.0
2014-Sep-15 01:33N 01°16' E 103°45'3 2.4
2014-Sep-15 00:31N 01°18' E 103°43'0 0.0
2014-Sep-14 23:25N 01°18' E 103°43'0 0.0
2014-Sep-14 22:31N 01°18' E 103°43'0 0.0
2014-Sep-14 21:33N 01°18' E 103°43'0 0.0
2014-Sep-14 20:17N 01°18' E 103°43'0 0.0
2014-Sep-14 19:29N 01°18' E 103°43'0 0.0
2014-Sep-14 18:25N 01°18' E 103°43'0 0.0
2014-Sep-14 17:28N 01°18' E 103°43'0 0.0
2014-Sep-14 16:28N 01°18' E 103°43'0 0.0
2014-Sep-14 15:30N 01°18' E 103°43'0 0.0
2014-Sep-14 14:33N 01°18' E 103°43'0 0.0
2014-Sep-14 13:32N 01°18' E 103°43'0 0.0
2014-Sep-14 12:29N 01°18' E 103°43'0 0.0
2014-Sep-14 11:28N 01°18' E 103°43'0 0.0
2014-Sep-14 10:28N 01°18' E 103°43'0 0.0
2014-Sep-14 09:22N 01°18' E 103°43'0 0.0
2014-Sep-14 08:33N 01°18' E 103°43'0 0.0
2014-Sep-14 07:21N 01°18' E 103°43'0 0.0
2014-Sep-14 06:26N 01°18' E 103°43'0 0.0
2014-Sep-14 05:28N 01°18' E 103°43'0 0.0
2014-Sep-14 04:31N 01°18' E 103°43'0 0.0
2014-Sep-14 03:30N 01°18' E 103°43'0 0.0
2014-Sep-14 02:33N 01°18' E 103°43'0 0.0
2014-Sep-14 01:29N 01°18' E 103°43'7 1.8
2014-Sep-13 21:33N 01°14' E 103°49'0 0.0
2014-Sep-13 20:29N 01°14' E 103°49'0 0.0
2014-Sep-13 19:29N 01°14' E 103°49'0 0.0
2014-Sep-13 18:31N 01°14' E 103°49'0 0.0
2014-Sep-13 17:31N 01°14' E 103°49'0 0.0
2014-Sep-13 16:27N 01°14' E 103°49'0 0.0
2014-Sep-13 15:27N 01°14' E 103°49'0 0.0
2014-Sep-13 14:33N 01°14' E 103°49'0 0.1
2014-Sep-13 13:32N 01°14' E 103°49'1 0.6
2014-Sep-13 11:31N 01°13' E 103°49'5 5.7
2014-Sep-13 10:34N 01°14' E 103°55'1210.9
2014-Sep-13 09:30N 01°16' E 104°06'  
2014-Sep-06 03:33N 35°01' E 139°34'1615.7
2014-Sep-06 02:33N 35°13' E 139°46'1211.7
2014-Sep-06 01:34N 35°24' E 139°42'3 3.2
2014-Sep-06 00:32N 35°27' E 139°40'0 0.0
2014-Sep-05 23:32N 35°27' E 139°40'0 0.0
2014-Sep-05 22:31N 35°27' E 139°40'0 0.0
2014-Sep-05 21:31N 35°27' E 139°40'0 0.0
2014-Sep-05 20:33N 35°27' E 139°40'0 0.0
2014-Sep-05 19:33N 35°27' E 139°40'0 0.0
2014-Sep-05 18:33N 35°27' E 139°40'0 0.0
2014-Sep-05 17:32N 35°27' E 139°40'0 0.0
2014-Sep-05 16:32N 35°27' E 139°40'0 0.0
2014-Sep-05 15:32N 35°27' E 139°40'0 0.0
2014-Sep-05 14:31N 35°27' E 139°40'0 0.0
2014-Sep-05 13:31N 35°27' E 139°40'0 0.0
2014-Sep-05 12:33N 35°27' E 139°40'0 0.0
2014-Sep-05 11:33N 35°27' E 139°40'0 0.0
2014-Sep-05 10:33N 35°27' E 139°40'0 0.0
2014-Sep-05 09:32N 35°27' E 139°40'0 0.0
2014-Sep-05 08:32N 35°27' E 139°40'0 0.0
2014-Sep-05 07:28N 35°27' E 139°40'0 0.0
2014-Sep-05 06:31N 35°27' E 139°40'0 0.0
2014-Sep-05 05:31N 35°27' E 139°40'0 0.0
2014-Sep-05 04:33N 35°27' E 139°40'0 0.0
2014-Sep-05 03:33N 35°27' E 139°40'0 0.0
2014-Sep-05 02:32N 35°27' E 139°40'  
Track history (hours):
 
Tides and Currents Weather Stations Pressure Air Temp Water Temp Dewpoint Dewpoint Depression Visibility Wind Speed Wind Dir Waves Ship Positions

Wilma

Last reported at 2014-Sep-15 02:32 UTC. Time now 2014-Sep-19 13:48 UTC.
Position N 01°12' E 103°36'.

Length 152 m; draft 7.5 m.

Type: Cargo ship. MMSI: 304080754.

Date/timePositionNaut miles runAvg speedWind from/ knotsBaromVisibWave heightAir tempDewpointWater temp
2014-Sep-15 02:32N 01°12' E 103°36'1010.0
2014-Sep-15 01:33N 01°16' E 103°45'3 2.4
2014-Sep-15 00:31N 01°18' E 103°43'0 0.0
2014-Sep-14 23:25N 01°18' E 103°43'0 0.0
2014-Sep-14 22:31N 01°18' E 103°43'0 0.0
2014-Sep-14 21:33N 01°18' E 103°43'0 0.0
2014-Sep-14 20:17N 01°18' E 103°43'0 0.0
2014-Sep-14 19:29N 01°18' E 103°43'0 0.0
2014-Sep-14 18:25N 01°18' E 103°43'0 0.0
2014-Sep-14 17:28N 01°18' E 103°43'0 0.0
2014-Sep-14 16:28N 01°18' E 103°43'0 0.0
2014-Sep-14 15:30N 01°18' E 103°43'0 0.0
2014-Sep-14 14:33N 01°18' E 103°43'0 0.0
2014-Sep-14 13:32N 01°18' E 103°43'0 0.0
2014-Sep-14 12:29N 01°18' E 103°43'0 0.0
2014-Sep-14 11:28N 01°18' E 103°43'0 0.0
2014-Sep-14 10:28N 01°18' E 103°43'0 0.0
2014-Sep-14 09:22N 01°18' E 103°43'0 0.0
2014-Sep-14 08:33N 01°18' E 103°43'0 0.0
2014-Sep-14 07:21N 01°18' E 103°43'0 0.0
2014-Sep-14 06:26N 01°18' E 103°43'0 0.0
2014-Sep-14 05:28N 01°18' E 103°43'0 0.0
2014-Sep-14 04:31N 01°18' E 103°43'0 0.0
2014-Sep-14 03:30N 01°18' E 103°43'0 0.0
2014-Sep-14 02:33N 01°18' E 103°43'0 0.0
2014-Sep-14 01:29N 01°18' E 103°43'7 1.8
2014-Sep-13 21:33N 01°14' E 103°49'0 0.0
2014-Sep-13 20:29N 01°14' E 103°49'0 0.0
2014-Sep-13 19:29N 01°14' E 103°49'0 0.0
2014-Sep-13 18:31N 01°14' E 103°49'0 0.0
2014-Sep-13 17:31N 01°14' E 103°49'0 0.0
2014-Sep-13 16:27N 01°14' E 103°49'0 0.0
2014-Sep-13 15:27N 01°14' E 103°49'0 0.0
2014-Sep-13 14:33N 01°14' E 103°49'0 0.1
2014-Sep-13 13:32N 01°14' E 103°49'1 0.6
2014-Sep-13 11:31N 01°13' E 103°49'5 5.7
2014-Sep-13 10:34N 01°14' E 103°55'1210.9
2014-Sep-13 09:30N 01°16' E 104°06'  
2014-Sep-06 03:33N 35°01' E 139°34'1615.7
2014-Sep-06 02:33N 35°13' E 139°46'1211.7
2014-Sep-06 01:34N 35°24' E 139°42'3 3.2
2014-Sep-06 00:32N 35°27' E 139°40'0 0.0
2014-Sep-05 23:32N 35°27' E 139°40'0 0.0
2014-Sep-05 22:31N 35°27' E 139°40'0 0.0
2014-Sep-05 21:31N 35°27' E 139°40'0 0.0
2014-Sep-05 20:33N 35°27' E 139°40'0 0.0
2014-Sep-05 19:33N 35°27' E 139°40'0 0.0
2014-Sep-05 18:33N 35°27' E 139°40'0 0.0
2014-Sep-05 17:32N 35°27' E 139°40'0 0.0
2014-Sep-05 16:32N 35°27' E 139°40'0 0.0
2014-Sep-05 15:32N 35°27' E 139°40'0 0.0
2014-Sep-05 14:31N 35°27' E 139°40'0 0.0
2014-Sep-05 13:31N 35°27' E 139°40'0 0.0
2014-Sep-05 12:33N 35°27' E 139°40'0 0.0
2014-Sep-05 11:33N 35°27' E 139°40'0 0.0
2014-Sep-05 10:33N 35°27' E 139°40'0 0.0
2014-Sep-05 09:32N 35°27' E 139°40'0 0.0
2014-Sep-05 08:32N 35°27' E 139°40'0 0.0
2014-Sep-05 07:28N 35°27' E 139°40'0 0.0
2014-Sep-05 06:31N 35°27' E 139°40'0 0.0
2014-Sep-05 05:31N 35°27' E 139°40'0 0.0
2014-Sep-05 04:33N 35°27' E 139°40'0 0.0
2014-Sep-05 03:33N 35°27' E 139°40'0 0.0
2014-Sep-05 02:32N 35°27' E 139°40'  

Dump ship's entire track history